Aviation Digital Data Service (ADDS)

Output produced by TAFs form (0849 UTC 27 August 2014)
found at http://aviationweather.gov/adds/tafs/
 
KAMA 270520Z 2706/2806 14008KT P6SM VCTS FEW070CB BKN110 
     TEMPO 2706/2709 27011KT -TSRA BKN070CB 
     FM271000 18014G24KT P6SM SCT070 BKN250 
     FM272100 16014KT P6SM VCTS BKN070CB 
     FM280300 20010KT P6SM BKN070